sensor_id;sensor_type;location;lat;lon;timestamp;P1;durP1;ratioP1;P2;durP2;ratioP2
12181;SDS011;6154;51.550;12.138;2022-12-05T00:00:37;58.38;;;19.25;;
12181;SDS011;6154;51.550;12.138;2022-12-05T00:03:25;55.63;;;21.35;;
12181;SDS011;6154;51.550;12.138;2022-12-05T00:06:12;58.20;;;22.23;;
12181;SDS011;6154;51.550;12.138;2022-12-05T00:09:01;59.85;;;19.00;;
12181;SDS011;6154;51.550;12.138;2022-12-05T00:11:49;53.58;;;18.83;;
12181;SDS011;6154;51.550;12.138;2022-12-05T00:14:37;56.90;;;20.95;;
12181;SDS011;6154;51.550;12.138;2022-12-05T00:17:24;62.92;;;22.08;;
12181;SDS011;6154;51.550;12.138;2022-12-05T00:20:11;77.37;;;23.85;;
12181;SDS011;6154;51.550;12.138;2022-12-05T00:22:58;65.78;;;19.05;;
12181;SDS011;6154;51.550;12.138;2022-12-05T00:25:47;62.20;;;20.15;;
12181;SDS011;6154;51.550;12.138;2022-12-05T00:28:33;76.28;;;20.37;;
12181;SDS011;6154;51.550;12.138;2022-12-05T00:31:21;62.80;;;20.37;;
12181;SDS011;6154;51.550;12.138;2022-12-05T00:34:09;73.85;;;19.12;;
12181;SDS011;6154;51.550;12.138;2022-12-05T00:36:57;78.40;;;19.08;;
12181;SDS011;6154;51.550;12.138;2022-12-05T00:39:44;46.95;;;20.02;;
12181;SDS011;6154;51.550;12.138;2022-12-05T00:42:32;68.45;;;19.92;;
12181;SDS011;6154;51.550;12.138;2022-12-05T00:45:20;67.20;;;20.62;;
12181;SDS011;6154;51.550;12.138;2022-12-05T00:48:07;54.50;;;17.95;;
12181;SDS011;6154;51.550;12.138;2022-12-05T00:50:58;80.82;;;19.12;;
12181;SDS011;6154;51.550;12.138;2022-12-05T00:53:46;52.42;;;19.35;;
12181;SDS011;6154;51.550;12.138;2022-12-05T00:56:34;69.00;;;19.08;;
12181;SDS011;6154;51.550;12.138;2022-12-05T00:59:26;83.03;;;21.42;;
12181;SDS011;6154;51.550;12.138;2022-12-05T01:02:13;74.72;;;21.25;;
12181;SDS011;6154;51.550;12.138;2022-12-05T01:05:00;51.00;;;17.45;;
12181;SDS011;6154;51.550;12.138;2022-12-05T01:07:47;61.78;;;20.88;;
12181;SDS011;6154;51.550;12.138;2022-12-05T01:10:34;86.82;;;23.40;;
12181;SDS011;6154;51.550;12.138;2022-12-05T01:13:22;87.47;;;19.35;;
12181;SDS011;6154;51.550;12.138;2022-12-05T01:16:13;96.60;;;22.17;;
12181;SDS011;6154;51.550;12.138;2022-12-05T01:19:03;78.55;;;18.35;;
12181;SDS011;6154;51.550;12.138;2022-12-05T01:21:52;71.10;;;18.98;;
12181;SDS011;6154;51.550;12.138;2022-12-05T01:24:40;72.87;;;19.65;;
12181;SDS011;6154;51.550;12.138;2022-12-05T01:27:27;79.70;;;20.83;;
12181;SDS011;6154;51.550;12.138;2022-12-05T01:30:15;75.85;;;21.55;;
12181;SDS011;6154;51.550;12.138;2022-12-05T01:33:04;87.22;;;20.67;;
12181;SDS011;6154;51.550;12.138;2022-12-05T01:35:51;88.95;;;20.35;;
12181;SDS011;6154;51.550;12.138;2022-12-05T01:38:39;82.65;;;19.62;;
12181;SDS011;6154;51.550;12.138;2022-12-05T01:41:27;89.35;;;19.90;;
12181;SDS011;6154;51.550;12.138;2022-12-05T01:47:43;62.97;;;19.55;;
12181;SDS011;6154;51.550;12.138;2022-12-05T01:50:32;66.37;;;19.42;;
12181;SDS011;6154;51.550;12.138;2022-12-05T01:53:20;63.85;;;21.67;;
12181;SDS011;6154;51.550;12.138;2022-12-05T01:56:08;64.53;;;19.75;;
12181;SDS011;6154;51.550;12.138;2022-12-05T01:58:55;62.75;;;18.55;;
12181;SDS011;6154;51.550;12.138;2022-12-05T02:01:42;69.22;;;18.65;;
12181;SDS011;6154;51.550;12.138;2022-12-05T02:04:30;64.75;;;20.08;;
12181;SDS011;6154;51.550;12.138;2022-12-05T02:07:22;54.75;;;20.37;;
12181;SDS011;6154;51.550;12.138;2022-12-05T02:10:09;60.72;;;18.15;;
12181;SDS011;6154;51.550;12.138;2022-12-05T02:12:56;60.12;;;18.87;;
12181;SDS011;6154;51.550;12.138;2022-12-05T02:15:57;60.85;;;18.02;;
12181;SDS011;6154;51.550;12.138;2022-12-05T02:18:51;54.08;;;20.10;;
12181;SDS011;6154;51.550;12.138;2022-12-05T02:22:17;71.65;;;19.73;;
12181;SDS011;6154;51.550;12.138;2022-12-05T02:28:55;55.58;;;19.08;;
12181;SDS011;6154;51.550;12.138;2022-12-05T02:31:59;52.72;;;17.70;;
12181;SDS011;6154;51.550;12.138;2022-12-05T02:34:54;58.08;;;18.58;;
12181;SDS011;6154;51.550;12.138;2022-12-05T02:37:47;77.78;;;20.80;;
12181;SDS011;6154;51.550;12.138;2022-12-05T02:40:40;72.87;;;20.15;;
12181;SDS011;6154;51.550;12.138;2022-12-05T02:43:33;49.42;;;18.75;;
12181;SDS011;6154;51.550;12.138;2022-12-05T02:46:28;56.50;;;19.70;;
12181;SDS011;6154;51.550;12.138;2022-12-05T02:49:18;60.45;;;19.00;;
12181;SDS011;6154;51.550;12.138;2022-12-05T02:52:09;63.90;;;17.20;;
12181;SDS011;6154;51.550;12.138;2022-12-05T02:54:58;52.47;;;17.85;;
12181;SDS011;6154;51.550;12.138;2022-12-05T02:57:49;58.08;;;18.70;;
12181;SDS011;6154;51.550;12.138;2022-12-05T03:00:42;49.67;;;17.10;;
12181;SDS011;6154;51.550;12.138;2022-12-05T03:03:32;70.72;;;18.85;;
12181;SDS011;6154;51.550;12.138;2022-12-05T03:06:22;73.35;;;17.45;;
12181;SDS011;6154;51.550;12.138;2022-12-05T03:09:14;46.25;;;17.95;;
12181;SDS011;6154;51.550;12.138;2022-12-05T03:12:06;42.62;;;16.20;;
12181;SDS011;6154;51.550;12.138;2022-12-05T03:14:56;47.00;;;16.67;;
12181;SDS011;6154;51.550;12.138;2022-12-05T03:17:50;47.53;;;16.87;;
12181;SDS011;6154;51.550;12.138;2022-12-05T03:20:42;67.22;;;15.77;;
12181;SDS011;6154;51.550;12.138;2022-12-05T03:23:35;51.65;;;15.13;;
12181;SDS011;6154;51.550;12.138;2022-12-05T03:26:31;53.92;;;16.98;;
12181;SDS011;6154;51.550;12.138;2022-12-05T03:29:24;56.03;;;15.40;;
12181;SDS011;6154;51.550;12.138;2022-12-05T03:32:16;44.60;;;16.60;;
12181;SDS011;6154;51.550;12.138;2022-12-05T03:35:10;32.85;;;14.80;;
12181;SDS011;6154;51.550;12.138;2022-12-05T03:38:05;43.90;;;15.93;;
12181;SDS011;6154;51.550;12.138;2022-12-05T03:41:01;46.15;;;13.98;;
12181;SDS011;6154;51.550;12.138;2022-12-05T03:43:55;50.58;;;13.85;;
12181;SDS011;6154;51.550;12.138;2022-12-05T03:46:47;39.53;;;14.65;;
12181;SDS011;6154;51.550;12.138;2022-12-05T03:49:40;39.35;;;15.07;;
12181;SDS011;6154;51.550;12.138;2022-12-05T03:52:31;39.33;;;13.43;;
12181;SDS011;6154;51.550;12.138;2022-12-05T03:55:41;42.80;;;13.62;;
12181;SDS011;6154;51.550;12.138;2022-12-05T03:58:32;30.52;;;12.07;;
12181;SDS011;6154;51.550;12.138;2022-12-05T04:01:23;27.02;;;13.50;;
12181;SDS011;6154;51.550;12.138;2022-12-05T04:04:16;34.70;;;13.40;;
12181;SDS011;6154;51.550;12.138;2022-12-05T04:07:07;35.65;;;12.80;;
12181;SDS011;6154;51.550;12.138;2022-12-05T04:09:55;43.03;;;12.90;;
12181;SDS011;6154;51.550;12.138;2022-12-05T04:12:45;51.30;;;12.65;;
12181;SDS011;6154;51.550;12.138;2022-12-05T04:15:36;33.42;;;13.65;;
12181;SDS011;6154;51.550;12.138;2022-12-05T04:18:37;26.77;;;10.98;;
12181;SDS011;6154;51.550;12.138;2022-12-05T04:21:31;22.35;;;10.93;;
12181;SDS011;6154;51.550;12.138;2022-12-05T04:24:25;28.50;;;10.95;;
12181;SDS011;6154;51.550;12.138;2022-12-05T04:27:36;25.02;;;10.93;;
12181;SDS011;6154;51.550;12.138;2022-12-05T04:30:29;32.45;;;12.07;;
12181;SDS011;6154;51.550;12.138;2022-12-05T04:33:24;25.55;;;10.27;;
12181;SDS011;6154;51.550;12.138;2022-12-05T04:36:18;30.08;;;9.88;;
12181;SDS011;6154;51.550;12.138;2022-12-05T04:39:09;20.23;;;9.57;;
12181;SDS011;6154;51.550;12.138;2022-12-05T04:42:04;27.25;;;8.90;;
12181;SDS011;6154;51.550;12.138;2022-12-05T04:44:55;20.35;;;10.30;;
12181;SDS011;6154;51.550;12.138;2022-12-05T04:47:46;20.85;;;9.80;;
12181;SDS011;6154;51.550;12.138;2022-12-05T04:50:41;24.80;;;9.73;;
12181;SDS011;6154;51.550;12.138;2022-12-05T04:53:30;18.55;;;10.07;;
12181;SDS011;6154;51.550;12.138;2022-12-05T04:56:19;17.20;;;8.85;;
12181;SDS011;6154;51.550;12.138;2022-12-05T04:59:07;22.27;;;9.50;;
12181;SDS011;6154;51.550;12.138;2022-12-05T05:01:56;17.42;;;8.98;;
12181;SDS011;6154;51.550;12.138;2022-12-05T05:04:48;26.48;;;8.25;;
12181;SDS011;6154;51.550;12.138;2022-12-05T05:07:43;19.10;;;7.85;;
12181;SDS011;6154;51.550;12.138;2022-12-05T05:10:32;13.93;;;7.60;;
12181;SDS011;6154;51.550;12.138;2022-12-05T05:13:24;19.90;;;7.25;;
12181;SDS011;6154;51.550;12.138;2022-12-05T05:16:12;12.00;;;5.85;;
12181;SDS011;6154;51.550;12.138;2022-12-05T05:19:03;15.40;;;7.18;;
12181;SDS011;6154;51.550;12.138;2022-12-05T05:21:51;17.48;;;7.25;;
12181;SDS011;6154;51.550;12.138;2022-12-05T05:24:40;17.73;;;7.53;;
12181;SDS011;6154;51.550;12.138;2022-12-05T05:27:27;12.15;;;6.15;;
12181;SDS011;6154;51.550;12.138;2022-12-05T05:30:14;13.48;;;6.43;;
12181;SDS011;6154;51.550;12.138;2022-12-05T05:33:01;12.68;;;6.43;;
12181;SDS011;6154;51.550;12.138;2022-12-05T05:35:48;16.60;;;7.25;;
12181;SDS011;6154;51.550;12.138;2022-12-05T05:38:35;13.25;;;6.57;;
12181;SDS011;6154;51.550;12.138;2022-12-05T05:41:25;18.10;;;6.55;;
12181;SDS011;6154;51.550;12.138;2022-12-05T05:44:13;14.57;;;6.35;;
12181;SDS011;6154;51.550;12.138;2022-12-05T05:47:00;11.12;;;6.22;;
12181;SDS011;6154;51.550;12.138;2022-12-05T05:49:47;14.48;;;6.72;;
12181;SDS011;6154;51.550;12.138;2022-12-05T05:52:34;11.05;;;6.22;;
12181;SDS011;6154;51.550;12.138;2022-12-05T05:55:22;10.20;;;5.68;;
12181;SDS011;6154;51.550;12.138;2022-12-05T05:58:10;14.25;;;6.32;;
12181;SDS011;6154;51.550;12.138;2022-12-05T06:01:01;11.18;;;5.68;;
12181;SDS011;6154;51.550;12.138;2022-12-05T06:03:49;10.65;;;5.62;;
12181;SDS011;6154;51.550;12.138;2022-12-05T06:06:37;9.68;;;5.80;;
12181;SDS011;6154;51.550;12.138;2022-12-05T06:09:24;14.40;;;7.35;;
12181;SDS011;6154;51.550;12.138;2022-12-05T06:12:11;13.75;;;7.25;;
12181;SDS011;6154;51.550;12.138;2022-12-05T06:14:59;17.70;;;6.60;;
12181;SDS011;6154;51.550;12.138;2022-12-05T06:17:46;11.00;;;6.03;;
12181;SDS011;6154;51.550;12.138;2022-12-05T06:20:33;15.15;;;5.82;;
12181;SDS011;6154;51.550;12.138;2022-12-05T06:23:20;13.15;;;6.37;;
12181;SDS011;6154;51.550;12.138;2022-12-05T06:26:09;10.88;;;5.70;;
12181;SDS011;6154;51.550;12.138;2022-12-05T06:28:59;13.15;;;6.35;;
12181;SDS011;6154;51.550;12.138;2022-12-05T06:31:48;14.77;;;5.43;;
12181;SDS011;6154;51.550;12.138;2022-12-05T06:34:35;18.45;;;6.37;;
12181;SDS011;6154;51.550;12.138;2022-12-05T06:37:22;17.70;;;6.37;;
12181;SDS011;6154;51.550;12.138;2022-12-05T06:40:09;18.15;;;5.53;;
12181;SDS011;6154;51.550;12.138;2022-12-05T06:42:57;12.52;;;5.12;;
12181;SDS011;6154;51.550;12.138;2022-12-05T06:45:45;11.07;;;5.15;;
12181;SDS011;6154;51.550;12.138;2022-12-05T06:48:34;12.15;;;5.75;;
12181;SDS011;6154;51.550;12.138;2022-12-05T06:51:21;11.77;;;5.65;;
12181;SDS011;6154;51.550;12.138;2022-12-05T06:54:10;14.50;;;5.12;;
12181;SDS011;6154;51.550;12.138;2022-12-05T06:56:57;7.78;;;5.15;;
12181;SDS011;6154;51.550;12.138;2022-12-05T06:59:44;11.18;;;6.05;;
12181;SDS011;6154;51.550;12.138;2022-12-05T07:02:31;8.52;;;5.40;;
12181;SDS011;6154;51.550;12.138;2022-12-05T07:05:19;8.88;;;4.95;;
12181;SDS011;6154;51.550;12.138;2022-12-05T07:08:06;6.47;;;4.37;;
12181;SDS011;6154;51.550;12.138;2022-12-05T07:10:53;15.70;;;6.00;;
12181;SDS011;6154;51.550;12.138;2022-12-05T07:13:40;8.20;;;4.60;;
12181;SDS011;6154;51.550;12.138;2022-12-05T07:16:27;10.35;;;5.12;;
12181;SDS011;6154;51.550;12.138;2022-12-05T07:19:14;12.55;;;5.57;;
12181;SDS011;6154;51.550;12.138;2022-12-05T07:22:03;9.75;;;5.00;;
12181;SDS011;6154;51.550;12.138;2022-12-05T07:24:56;10.23;;;5.50;;
12181;SDS011;6154;51.550;12.138;2022-12-05T07:27:43;17.65;;;4.82;;
12181;SDS011;6154;51.550;12.138;2022-12-05T07:30:30;7.85;;;5.35;;
12181;SDS011;6154;51.550;12.138;2022-12-05T07:33:17;9.27;;;4.47;;
12181;SDS011;6154;51.550;12.138;2022-12-05T07:36:05;18.50;;;6.20;;
12181;SDS011;6154;51.550;12.138;2022-12-05T07:38:55;9.27;;;4.93;;
12181;SDS011;6154;51.550;12.138;2022-12-05T07:41:43;10.10;;;5.65;;
12181;SDS011;6154;51.550;12.138;2022-12-05T07:44:33;9.32;;;4.97;;
12181;SDS011;6154;51.550;12.138;2022-12-05T07:47:20;10.38;;;5.78;;
12181;SDS011;6154;51.550;12.138;2022-12-05T07:50:08;29.10;;;6.30;;
12181;SDS011;6154;51.550;12.138;2022-12-05T07:52:55;10.38;;;5.53;;
12181;SDS011;6154;51.550;12.138;2022-12-05T07:55:43;12.68;;;6.10;;
12181;SDS011;6154;51.550;12.138;2022-12-05T07:58:31;10.77;;;5.55;;
12181;SDS011;6154;51.550;12.138;2022-12-05T08:01:19;8.40;;;4.72;;
12181;SDS011;6154;51.550;12.138;2022-12-05T08:04:09;9.07;;;5.28;;
12181;SDS011;6154;51.550;12.138;2022-12-05T08:07:00;14.48;;;5.80;;
12181;SDS011;6154;51.550;12.138;2022-12-05T08:09:47;11.48;;;4.62;;
12181;SDS011;6154;51.550;12.138;2022-12-05T08:12:35;10.38;;;5.60;;
12181;SDS011;6154;51.550;12.138;2022-12-05T08:15:23;9.95;;;5.07;;
12181;SDS011;6154;51.550;12.138;2022-12-05T08:18:10;8.32;;;4.80;;
12181;SDS011;6154;51.550;12.138;2022-12-05T08:21:00;10.18;;;5.20;;
12181;SDS011;6154;51.550;12.138;2022-12-05T08:23:47;14.40;;;6.15;;
12181;SDS011;6154;51.550;12.138;2022-12-05T08:26:35;14.02;;;5.87;;
12181;SDS011;6154;51.550;12.138;2022-12-05T08:29:24;19.75;;;10.20;;
12181;SDS011;6154;51.550;12.138;2022-12-05T08:32:11;24.45;;;13.55;;
12181;SDS011;6154;51.550;12.138;2022-12-05T08:34:58;13.07;;;6.32;;
12181;SDS011;6154;51.550;12.138;2022-12-05T08:37:46;12.02;;;6.65;;
12181;SDS011;6154;51.550;12.138;2022-12-05T08:40:32;20.05;;;6.78;;
12181;SDS011;6154;51.550;12.138;2022-12-05T08:43:20;15.52;;;6.93;;
12181;SDS011;6154;51.550;12.138;2022-12-05T08:46:08;13.30;;;5.80;;
12181;SDS011;6154;51.550;12.138;2022-12-05T08:48:56;16.50;;;6.28;;
12181;SDS011;6154;51.550;12.138;2022-12-05T08:51:43;11.80;;;5.57;;
12181;SDS011;6154;51.550;12.138;2022-12-05T08:54:30;22.40;;;8.40;;
12181;SDS011;6154;51.550;12.138;2022-12-05T08:57:17;17.83;;;8.10;;
12181;SDS011;6154;51.550;12.138;2022-12-05T09:00:05;28.83;;;7.15;;
12181;SDS011;6154;51.550;12.138;2022-12-05T09:02:54;14.20;;;6.55;;
12181;SDS011;6154;51.550;12.138;2022-12-05T09:05:42;14.05;;;6.32;;
12181;SDS011;6154;51.550;12.138;2022-12-05T09:08:29;19.65;;;7.03;;
12181;SDS011;6154;51.550;12.138;2022-12-05T09:11:17;15.18;;;6.55;;
12181;SDS011;6154;51.550;12.138;2022-12-05T09:14:05;14.18;;;7.30;;
12181;SDS011;6154;51.550;12.138;2022-12-05T09:16:53;8.65;;;5.25;;
12181;SDS011;6154;51.550;12.138;2022-12-05T09:19:41;22.52;;;6.07;;
12181;SDS011;6154;51.550;12.138;2022-12-05T09:22:29;11.07;;;5.47;;
12181;SDS011;6154;51.550;12.138;2022-12-05T09:25:16;16.90;;;7.43;;
12181;SDS011;6154;51.550;12.138;2022-12-05T09:28:04;19.52;;;7.28;;
12181;SDS011;6154;51.550;12.138;2022-12-05T09:30:54;13.57;;;6.45;;
12181;SDS011;6154;51.550;12.138;2022-12-05T09:33:43;17.73;;;7.20;;
12181;SDS011;6154;51.550;12.138;2022-12-05T09:36:32;11.80;;;5.68;;
12181;SDS011;6154;51.550;12.138;2022-12-05T09:39:19;14.07;;;6.37;;
12181;SDS011;6154;51.550;12.138;2022-12-05T09:45:25;10.75;;;5.53;;
12181;SDS011;6154;51.550;12.138;2022-12-05T09:48:19;10.13;;;4.97;;
12181;SDS011;6154;51.550;12.138;2022-12-05T09:51:09;9.48;;;5.70;;
12181;SDS011;6154;51.550;12.138;2022-12-05T09:53:58;7.37;;;5.37;;
12181;SDS011;6154;51.550;12.138;2022-12-05T09:56:45;12.48;;;6.20;;
12181;SDS011;6154;51.550;12.138;2022-12-05T09:59:35;11.18;;;4.78;;
12181;SDS011;6154;51.550;12.138;2022-12-05T10:02:24;10.98;;;5.18;;
12181;SDS011;6154;51.550;12.138;2022-12-05T10:05:28;10.55;;;4.78;;
12181;SDS011;6154;51.550;12.138;2022-12-05T10:08:25;10.55;;;5.07;;
12181;SDS011;6154;51.550;12.138;2022-12-05T10:11:21;9.73;;;5.40;;
12181;SDS011;6154;51.550;12.138;2022-12-05T10:14:14;12.93;;;6.05;;
12181;SDS011;6154;51.550;12.138;2022-12-05T10:17:14;16.67;;;7.12;;
12181;SDS011;6154;51.550;12.138;2022-12-05T10:20:09;28.12;;;6.43;;
12181;SDS011;6154;51.550;12.138;2022-12-05T10:23:01;14.73;;;5.57;;
12181;SDS011;6154;51.550;12.138;2022-12-05T10:25:56;15.30;;;5.93;;
12181;SDS011;6154;51.550;12.138;2022-12-05T10:28:48;11.77;;;5.47;;
12181;SDS011;6154;51.550;12.138;2022-12-05T10:31:40;18.40;;;5.62;;
12181;SDS011;6154;51.550;12.138;2022-12-05T10:34:32;12.73;;;5.82;;
12181;SDS011;6154;51.550;12.138;2022-12-05T10:37:22;10.82;;;5.62;;
12181;SDS011;6154;51.550;12.138;2022-12-05T10:40:10;13.93;;;6.18;;
12181;SDS011;6154;51.550;12.138;2022-12-05T10:42:58;15.55;;;6.90;;
12181;SDS011;6154;51.550;12.138;2022-12-05T10:45:47;12.60;;;6.30;;
12181;SDS011;6154;51.550;12.138;2022-12-05T10:48:34;13.32;;;6.93;;
12181;SDS011;6154;51.550;12.138;2022-12-05T10:51:26;11.27;;;5.85;;
12181;SDS011;6154;51.550;12.138;2022-12-05T10:54:22;12.73;;;6.87;;
12181;SDS011;6154;51.550;12.138;2022-12-05T10:57:19;13.07;;;6.47;;
12181;SDS011;6154;51.550;12.138;2022-12-05T11:00:09;16.50;;;7.07;;
12181;SDS011;6154;51.550;12.138;2022-12-05T11:03:02;14.13;;;6.75;;
12181;SDS011;6154;51.550;12.138;2022-12-05T11:05:50;12.80;;;6.18;;
12181;SDS011;6154;51.550;12.138;2022-12-05T11:08:38;18.35;;;6.97;;
12181;SDS011;6154;51.550;12.138;2022-12-05T11:11:55;11.77;;;7.12;;
12181;SDS011;6154;51.550;12.138;2022-12-05T11:14:53;18.83;;;7.35;;
12181;SDS011;6154;51.550;12.138;2022-12-05T11:17:43;14.23;;;7.28;;
12181;SDS011;6154;51.550;12.138;2022-12-05T11:20:36;10.75;;;5.65;;
12181;SDS011;6154;51.550;12.138;2022-12-05T11:23:26;11.45;;;6.00;;
12181;SDS011;6154;51.550;12.138;2022-12-05T11:26:18;10.07;;;6.28;;
12181;SDS011;6154;51.550;12.138;2022-12-05T11:29:32;12.80;;;6.60;;
12181;SDS011;6154;51.550;12.138;2022-12-05T11:32:21;13.30;;;7.43;;
12181;SDS011;6154;51.550;12.138;2022-12-05T11:35:16;10.63;;;5.78;;
12181;SDS011;6154;51.550;12.138;2022-12-05T11:38:11;11.40;;;5.70;;
12181;SDS011;6154;51.550;12.138;2022-12-05T11:41:07;10.68;;;5.20;;
12181;SDS011;6154;51.550;12.138;2022-12-05T11:44:16;10.52;;;5.12;;
12181;SDS011;6154;51.550;12.138;2022-12-05T11:47:18;11.18;;;4.78;;
12181;SDS011;6154;51.550;12.138;2022-12-05T11:50:20;9.98;;;5.50;;
12181;SDS011;6154;51.550;12.138;2022-12-05T11:53:25;12.25;;;6.28;;
12181;SDS011;6154;51.550;12.138;2022-12-05T11:56:30;8.07;;;5.47;;
12181;SDS011;6154;51.550;12.138;2022-12-05T11:59:29;12.60;;;6.18;;
12181;SDS011;6154;51.550;12.138;2022-12-05T12:02:32;12.65;;;6.28;;
12181;SDS011;6154;51.550;12.138;2022-12-05T12:05:35;12.50;;;6.37;;
12181;SDS011;6154;51.550;12.138;2022-12-05T12:08:28;12.68;;;6.28;;
12181;SDS011;6154;51.550;12.138;2022-12-05T12:11:22;12.15;;;6.20;;
12181;SDS011;6154;51.550;12.138;2022-12-05T12:14:18;19.00;;;7.93;;
12181;SDS011;6154;51.550;12.138;2022-12-05T12:17:14;9.73;;;6.47;;
12181;SDS011;6154;51.550;12.138;2022-12-05T12:20:14;12.05;;;6.22;;
12181;SDS011;6154;51.550;12.138;2022-12-05T12:23:16;13.07;;;6.75;;
12181;SDS011;6154;51.550;12.138;2022-12-05T12:26:14;15.23;;;7.10;;
12181;SDS011;6154;51.550;12.138;2022-12-05T12:29:12;13.00;;;6.75;;
12181;SDS011;6154;51.550;12.138;2022-12-05T12:32:13;9.95;;;5.30;;
12181;SDS011;6154;51.550;12.138;2022-12-05T12:35:16;11.82;;;6.05;;
12181;SDS011;6154;51.550;12.138;2022-12-05T12:38:16;11.70;;;6.15;;
12181;SDS011;6154;51.550;12.138;2022-12-05T12:41:17;9.90;;;4.82;;
12181;SDS011;6154;51.550;12.138;2022-12-05T12:47:38;10.18;;;5.72;;
12181;SDS011;6154;51.550;12.138;2022-12-05T12:50:36;6.57;;;4.40;;
12181;SDS011;6154;51.550;12.138;2022-12-05T12:53:36;8.77;;;4.68;;
12181;SDS011;6154;51.550;12.138;2022-12-05T12:56:39;7.55;;;4.97;;
12181;SDS011;6154;51.550;12.138;2022-12-05T13:02:48;11.73;;;5.35;;
12181;SDS011;6154;51.550;12.138;2022-12-05T13:05:41;12.00;;;5.15;;
12181;SDS011;6154;51.550;12.138;2022-12-05T13:08:33;8.18;;;4.28;;
12181;SDS011;6154;51.550;12.138;2022-12-05T13:11:25;11.80;;;5.22;;
12181;SDS011;6154;51.550;12.138;2022-12-05T13:14:19;9.95;;;5.35;;
12181;SDS011;6154;51.550;12.138;2022-12-05T13:17:10;12.73;;;6.62;;
12181;SDS011;6154;51.550;12.138;2022-12-05T13:20:03;12.65;;;7.32;;
12181;SDS011;6154;51.550;12.138;2022-12-05T13:22:51;9.32;;;4.95;;
12181;SDS011;6154;51.550;12.138;2022-12-05T13:25:39;6.45;;;4.32;;
12181;SDS011;6154;51.550;12.138;2022-12-05T13:28:29;11.80;;;5.78;;
12181;SDS011;6154;51.550;12.138;2022-12-05T13:31:34;8.93;;;5.03;;
12181;SDS011;6154;51.550;12.138;2022-12-05T13:34:42;9.52;;;5.07;;
12181;SDS011;6154;51.550;12.138;2022-12-05T13:37:31;9.88;;;5.15;;
12181;SDS011;6154;51.550;12.138;2022-12-05T13:40:38;7.82;;;4.70;;
12181;SDS011;6154;51.550;12.138;2022-12-05T13:43:53;6.82;;;4.95;;
12181;SDS011;6154;51.550;12.138;2022-12-05T13:46:52;7.93;;;4.18;;
12181;SDS011;6154;51.550;12.138;2022-12-05T13:49:41;8.02;;;4.60;;
12181;SDS011;6154;51.550;12.138;2022-12-05T13:52:38;8.70;;;4.45;;
12181;SDS011;6154;51.550;12.138;2022-12-05T13:55:29;8.30;;;5.10;;
12181;SDS011;6154;51.550;12.138;2022-12-05T13:58:41;7.03;;;4.37;;
12181;SDS011;6154;51.550;12.138;2022-12-05T14:01:46;7.12;;;3.72;;
12181;SDS011;6154;51.550;12.138;2022-12-05T14:04:44;7.18;;;4.25;;
12181;SDS011;6154;51.550;12.138;2022-12-05T14:07:36;7.10;;;4.18;;
12181;SDS011;6154;51.550;12.138;2022-12-05T14:13:54;9.48;;;5.35;;
12181;SDS011;6154;51.550;12.138;2022-12-05T14:16:48;7.55;;;4.65;;
12181;SDS011;6154;51.550;12.138;2022-12-05T14:19:51;9.25;;;4.78;;
12181;SDS011;6154;51.550;12.138;2022-12-05T14:22:47;8.30;;;4.97;;
12181;SDS011;6154;51.550;12.138;2022-12-05T14:25:55;9.32;;;4.68;;
12181;SDS011;6154;51.550;12.138;2022-12-05T14:28:58;7.75;;;4.68;;
12181;SDS011;6154;51.550;12.138;2022-12-05T14:31:57;8.52;;;4.87;;
12181;SDS011;6154;51.550;12.138;2022-12-05T14:34:55;7.95;;;4.47;;
12181;SDS011;6154;51.550;12.138;2022-12-05T14:37:49;7.70;;;3.80;;
12181;SDS011;6154;51.550;12.138;2022-12-05T14:40:38;7.12;;;4.32;;
12181;SDS011;6154;51.550;12.138;2022-12-05T14:43:28;8.93;;;5.32;;
12181;SDS011;6154;51.550;12.138;2022-12-05T14:46:19;8.85;;;5.62;;
12181;SDS011;6154;51.550;12.138;2022-12-05T14:52:26;7.07;;;4.07;;
12181;SDS011;6154;51.550;12.138;2022-12-05T14:55:15;8.30;;;4.43;;
12181;SDS011;6154;51.550;12.138;2022-12-05T14:58:11;7.35;;;5.00;;
12181;SDS011;6154;51.550;12.138;2022-12-05T15:01:04;9.30;;;5.28;;
12181;SDS011;6154;51.550;12.138;2022-12-05T15:03:59;7.20;;;4.40;;
12181;SDS011;6154;51.550;12.138;2022-12-05T15:06:52;8.95;;;5.15;;
12181;SDS011;6154;51.550;12.138;2022-12-05T15:09:45;7.18;;;4.87;;
12181;SDS011;6154;51.550;12.138;2022-12-05T15:12:42;6.70;;;4.40;;
12181;SDS011;6154;51.550;12.138;2022-12-05T15:15:34;8.20;;;5.62;;
12181;SDS011;6154;51.550;12.138;2022-12-05T15:18:23;7.50;;;4.87;;
12181;SDS011;6154;51.550;12.138;2022-12-05T15:21:17;7.45;;;5.35;;
12181;SDS011;6154;51.550;12.138;2022-12-05T15:24:10;7.65;;;5.53;;
12181;SDS011;6154;51.550;12.138;2022-12-05T15:27:00;8.45;;;5.68;;
12181;SDS011;6154;51.550;12.138;2022-12-05T15:29:52;9.30;;;4.95;;
12181;SDS011;6154;51.550;12.138;2022-12-05T15:32:41;7.90;;;5.60;;
12181;SDS011;6154;51.550;12.138;2022-12-05T15:35:29;11.12;;;6.47;;
12181;SDS011;6154;51.550;12.138;2022-12-05T15:38:18;6.68;;;4.87;;
12181;SDS011;6154;51.550;12.138;2022-12-05T15:41:14;9.50;;;5.30;;
12181;SDS011;6154;51.550;12.138;2022-12-05T15:44:04;10.05;;;5.78;;
12181;SDS011;6154;51.550;12.138;2022-12-05T15:46:51;9.10;;;5.57;;
12181;SDS011;6154;51.550;12.138;2022-12-05T15:49:39;16.30;;;5.62;;
12181;SDS011;6154;51.550;12.138;2022-12-05T15:52:28;10.57;;;6.18;;
12181;SDS011;6154;51.550;12.138;2022-12-05T15:55:24;9.68;;;5.93;;
12181;SDS011;6154;51.550;12.138;2022-12-05T15:58:18;12.63;;;6.35;;
12181;SDS011;6154;51.550;12.138;2022-12-05T16:01:11;19.65;;;8.55;;
12181;SDS011;6154;51.550;12.138;2022-12-05T16:04:01;11.60;;;6.43;;
12181;SDS011;6154;51.550;12.138;2022-12-05T16:06:53;9.55;;;5.87;;
12181;SDS011;6154;51.550;12.138;2022-12-05T16:09:42;8.55;;;5.82;;
12181;SDS011;6154;51.550;12.138;2022-12-05T16:12:32;9.07;;;6.30;;
12181;SDS011;6154;51.550;12.138;2022-12-05T16:15:23;9.35;;;5.07;;
12181;SDS011;6154;51.550;12.138;2022-12-05T16:18:22;9.40;;;5.78;;
12181;SDS011;6154;51.550;12.138;2022-12-05T16:21:26;8.05;;;5.53;;
12181;SDS011;6154;51.550;12.138;2022-12-05T16:24:26;8.75;;;5.03;;
12181;SDS011;6154;51.550;12.138;2022-12-05T16:27:15;8.60;;;5.78;;
12181;SDS011;6154;51.550;12.138;2022-12-05T16:30:08;9.10;;;5.10;;
12181;SDS011;6154;51.550;12.138;2022-12-05T16:33:03;6.55;;;4.72;;
12181;SDS011;6154;51.550;12.138;2022-12-05T16:35:54;8.13;;;4.85;;
12181;SDS011;6154;51.550;12.138;2022-12-05T16:38:41;11.25;;;6.97;;
12181;SDS011;6154;51.550;12.138;2022-12-05T16:41:33;12.25;;;7.75;;
12181;SDS011;6154;51.550;12.138;2022-12-05T16:47:53;74.47;;;27.33;;
12181;SDS011;6154;51.550;12.138;2022-12-05T16:50:42;87.45;;;29.10;;
12181;SDS011;6154;51.550;12.138;2022-12-05T16:53:34;32.13;;;11.98;;
12181;SDS011;6154;51.550;12.138;2022-12-05T16:56:27;10.68;;;6.60;;
12181;SDS011;6154;51.550;12.138;2022-12-05T16:59:29;8.38;;;5.37;;
12181;SDS011;6154;51.550;12.138;2022-12-05T17:02:17;14.00;;;6.65;;
12181;SDS011;6154;51.550;12.138;2022-12-05T17:05:11;12.52;;;6.87;;
12181;SDS011;6154;51.550;12.138;2022-12-05T17:08:15;7.75;;;5.45;;
12181;SDS011;6154;51.550;12.138;2022-12-05T17:11:07;14.15;;;6.05;;
12181;SDS011;6154;51.550;12.138;2022-12-05T17:13:58;8.50;;;5.57;;
12181;SDS011;6154;51.550;12.138;2022-12-05T17:16:45;10.82;;;5.28;;
12181;SDS011;6154;51.550;12.138;2022-12-05T17:19:32;8.13;;;5.45;;
12181;SDS011;6154;51.550;12.138;2022-12-05T17:22:19;9.93;;;5.93;;
12181;SDS011;6154;51.550;12.138;2022-12-05T17:25:12;10.68;;;6.82;;